Time;durP1;ratioP1;P1;durP2;ratioP2;P2;SDS_P1;SDS_P2;PMS_P1;PMS_P2;Temp;Humidity;BMP_temperature;BMP_pressure;BME280_temperature;BME280_humidity;BME280_pressure;Samples;Min_cycle;Max_cycle;Signal;HPM_P1;HPM_P2
2022/08/03 00:00:49;;;;;;;;;;;20.60;99.90;;;;;;5038847;28;19925;-70
2022/08/03 00:03:16;;;;;;;;;;;20.60;99.90;;;;;;5043305;28;19925;-70
2022/08/03 00:05:42;;;;;;;;;;;20.50;99.90;;;;;;5038947;28;19928;-71
2022/08/03 00:08:09;;;;;;;;;;;20.50;99.90;;;;;;5041572;28;19931;-70
2022/08/03 00:10:38;;;;;;;;;;;20.50;99.90;;;;;;5039156;28;19929;-70
2022/08/03 00:13:04;;;;;;;;;;;20.50;99.90;;;;;;5041077;28;19929;-70
2022/08/03 00:15:31;;;;;;;;;;;20.40;99.90;;;;;;5041768;28;19925;-70
2022/08/03 00:17:58;;;;;;;;;;;20.40;99.90;;;;;;5041042;28;19928;-70
2022/08/03 00:20:25;;;;;;;;;;;20.40;99.90;;;;;;5042556;28;19982;-70
2022/08/03 00:22:52;;;;;;;;;;;20.40;99.90;;;;;;5038887;28;19929;-70
2022/08/03 00:25:19;;;;;;;;;;;20.40;99.90;;;;;;5043714;28;19978;-70
2022/08/03 00:27:47;;;;;;;;;;;20.40;99.90;;;;;;5039100;28;19932;-70
2022/08/03 00:30:14;;;;;;;;;;;20.40;99.90;;;;;;5033945;28;20400;-70
2022/08/03 00:32:41;;;;;;;;;;;20.30;99.90;;;;;;5038667;28;20384;-70
2022/08/03 00:35:08;;;;;;;;;;;20.30;99.90;;;;;;5044961;28;19928;-70
2022/08/03 00:37:35;;;;;;;;;;;20.20;99.90;;;;;;5036954;28;19929;-70
2022/08/03 00:40:02;;;;;;;;;;;20.20;99.90;;;;;;5043201;28;19994;-70
2022/08/03 00:42:28;;;;;;;;;;;20.10;99.90;;;;;;5036615;28;19925;-70
2022/08/03 00:44:57;;;;;;;;;;;20.10;99.90;;;;;;5043923;28;19925;-70
2022/08/03 00:47:23;;;;;;;;;;;20.00;99.90;;;;;;5039826;28;19925;-71
2022/08/03 00:49:50;;;;;;;;;;;20.00;99.90;;;;;;5040481;28;19948;-70
2022/08/03 00:52:17;;;;;;;;;;;20.00;99.90;;;;;;5040986;28;19932;-70
2022/08/03 00:54:44;;;;;;;;;;;20.00;99.90;;;;;;5038590;28;19925;-70
2022/08/03 00:57:10;;;;;;;;;;;20.00;99.90;;;;;;5039295;28;19932;-71
2022/08/03 00:59:38;;;;;;;;;;;19.90;99.90;;;;;;5046853;28;20342;-70
2022/08/03 01:02:06;;;;;;;;;;;19.90;99.90;;;;;;5044325;28;19925;-70
2022/08/03 01:04:33;;;;;;;;;;;19.90;99.90;;;;;;5051484;28;19989;-71
2022/08/03 01:07:03;;;;;;;;;;;19.90;99.90;;;;;;5041215;28;20303;-70
2022/08/03 01:09:35;;;;;;;;;;;19.90;99.90;;;;;;5039641;28;19926;-70
2022/08/03 01:12:07;;;;;;;;;;;19.90;99.90;;;;;;5037193;28;19925;-70
2022/08/03 01:14:38;;;;;;;;;;;19.90;99.90;;;;;;5024414;28;19979;-71
2022/08/03 01:17:09;;;;;;;;;;;19.90;99.90;;;;;;5038689;28;20374;-70
2022/08/03 01:19:42;;;;;;;;;;;19.80;99.90;;;;;;5039162;28;19943;-70
2022/08/03 01:22:17;;;;;;;;;;;19.80;99.90;;;;;;5039935;28;20016;-70
2022/08/03 01:24:50;;;;;;;;;;;19.70;99.90;;;;;;5041593;28;19925;-70
2022/08/03 01:27:18;;;;;;;;;;;19.70;99.90;;;;;;5039484;28;19929;-70
2022/08/03 01:30:02;;;;;;;;;;;19.70;99.90;;;;;;5037806;28;19979;-70
2022/08/03 01:32:35;;;;;;;;;;;19.70;99.90;;;;;;5039935;28;20415;-70
2022/08/03 01:35:03;;;;;;;;;;;19.60;99.90;;;;;;5039154;28;19924;-70
2022/08/03 01:37:32;;;;;;;;;;;19.60;99.90;;;;;;5036008;28;19931;-69
2022/08/03 01:40:01;;;;;;;;;;;19.60;99.90;;;;;;5038770;28;19925;-70
2022/08/03 01:42:29;;;;;;;;;;;19.60;99.90;;;;;;5039412;28;19928;-70
2022/08/03 01:44:57;;;;;;;;;;;19.60;99.90;;;;;;5041666;28;19933;-70
2022/08/03 01:47:25;;;;;;;;;;;19.50;99.90;;;;;;5036799;28;19929;-71
2022/08/03 01:49:53;;;;;;;;;;;19.50;99.90;;;;;;5038645;28;19978;-70
2022/08/03 01:52:21;;;;;;;;;;;19.50;99.90;;;;;;5037289;28;20359;-70
2022/08/03 01:54:50;;;;;;;;;;;19.50;99.90;;;;;;5040454;28;19925;-70
2022/08/03 01:57:18;;;;;;;;;;;19.50;99.90;;;;;;5038093;28;19931;-70
2022/08/03 01:59:45;;;;;;;;;;;19.50;99.90;;;;;;5039252;28;19925;-70
2022/08/03 02:02:13;;;;;;;;;;;19.40;99.90;;;;;;5037049;28;19925;-70
2022/08/03 02:04:42;;;;;;;;;;;19.40;99.90;;;;;;5040350;28;20404;-70
2022/08/03 02:07:10;;;;;;;;;;;19.40;99.90;;;;;;5041084;28;19933;-70
2022/08/03 02:09:38;;;;;;;;;;;19.40;99.90;;;;;;5039805;28;19928;-70
2022/08/03 02:12:07;;;;;;;;;;;19.40;99.90;;;;;;5038675;28;19925;-70
2022/08/03 02:14:34;;;;;;;;;;;19.40;99.90;;;;;;5034297;28;20324;-69
2022/08/03 02:17:01;;;;;;;;;;;19.40;99.90;;;;;;5032034;28;19931;-71
2022/08/03 02:19:30;;;;;;;;;;;19.30;99.90;;;;;;5039992;28;19925;-70
2022/08/03 02:21:58;;;;;;;;;;;19.30;99.90;;;;;;5040772;28;19935;-70
2022/08/03 02:24:25;;;;;;;;;;;19.20;99.90;;;;;;5040935;28;20273;-71
2022/08/03 02:26:53;;;;;;;;;;;19.20;99.90;;;;;;5041835;28;19925;-71
2022/08/03 02:29:25;;;;;;;;;;;19.20;99.90;;;;;;5036668;28;19931;-70
2022/08/03 02:31:52;;;;;;;;;;;19.20;99.90;;;;;;5033873;28;19925;-70
2022/08/03 02:34:21;;;;;;;;;;;19.10;99.90;;;;;;5034368;28;20339;-70
2022/08/03 02:36:50;;;;;;;;;;;19.20;99.90;;;;;;5037006;28;19970;-70
2022/08/03 02:39:20;;;;;;;;;;;19.20;99.90;;;;;;5033988;28;19935;-70
2022/08/03 02:41:49;;;;;;;;;;;19.10;99.90;;;;;;5034350;28;19928;-70
2022/08/03 02:44:18;;;;;;;;;;;19.10;99.90;;;;;;5033669;28;19932;-70
2022/08/03 02:46:45;;;;;;;;;;;19.00;99.90;;;;;;5034274;28;20331;-70
2022/08/03 02:49:13;;;;;;;;;;;19.00;99.90;;;;;;5035882;28;20351;-70
2022/08/03 02:51:41;;;;;;;;;;;18.90;99.90;;;;;;5034025;28;19925;-70
2022/08/03 02:54:09;;;;;;;;;;;18.90;99.90;;;;;;5040208;28;19929;-70
2022/08/03 02:56:37;;;;;;;;;;;18.90;99.90;;;;;;5035794;28;20020;-70
2022/08/03 02:59:06;;;;;;;;;;;18.90;99.90;;;;;;5040352;28;19925;-70
2022/08/03 03:01:33;;;;;;;;;;;18.90;99.90;;;;;;5034303;28;20399;-70
2022/08/03 03:04:00;;;;;;;;;;;18.80;99.90;;;;;;5034044;28;20392;-70
2022/08/03 03:06:27;;;;;;;;;;;18.80;99.90;;;;;;5042982;28;19929;-70
2022/08/03 03:08:56;;;;;;;;;;;18.80;99.90;;;;;;5046407;28;19978;-70
2022/08/03 03:11:23;;;;;;;;;;;18.80;99.90;;;;;;5038984;28;19925;-70
2022/08/03 03:13:51;;;;;;;;;;;18.80;99.90;;;;;;5036171;28;19925;-70
2022/08/03 03:16:19;;;;;;;;;;;18.70;99.90;;;;;;5038878;28;19925;-70
2022/08/03 03:18:48;;;;;;;;;;;18.70;99.90;;;;;;5046115;28;19925;-71
2022/08/03 03:21:16;;;;;;;;;;;18.70;99.90;;;;;;5046030;28;19931;-70
2022/08/03 03:23:43;;;;;;;;;;;18.60;99.90;;;;;;5038440;28;19932;-70
2022/08/03 03:26:13;;;;;;;;;;;18.70;99.90;;;;;;5047454;28;19925;-70
2022/08/03 03:28:39;;;;;;;;;;;18.60;99.90;;;;;;5035894;28;19932;-70
2022/08/03 03:31:08;;;;;;;;;;;18.60;99.90;;;;;;5039563;28;20347;-70
2022/08/03 03:33:36;;;;;;;;;;;18.50;99.90;;;;;;5033633;28;19936;-70
2022/08/03 03:36:03;;;;;;;;;;;18.50;99.90;;;;;;5032359;28;19991;-70
2022/08/03 03:38:30;;;;;;;;;;;18.40;99.90;;;;;;5033317;28;19924;-70
2022/08/03 03:40:57;;;;;;;;;;;18.40;99.90;;;;;;5036387;28;19929;-70
2022/08/03 03:43:24;;;;;;;;;;;18.40;99.90;;;;;;5034624;28;19974;-70
2022/08/03 03:45:52;;;;;;;;;;;18.30;99.90;;;;;;5033227;28;19929;-70
2022/08/03 03:48:20;;;;;;;;;;;18.40;99.90;;;;;;5033585;28;19932;-70
2022/08/03 03:50:49;;;;;;;;;;;18.30;99.90;;;;;;5033487;28;19925;-70
2022/08/03 03:53:16;;;;;;;;;;;18.30;99.90;;;;;;5030856;28;19933;-69
2022/08/03 03:55:43;;;;;;;;;;;18.30;99.90;;;;;;5032879;28;19925;-70
2022/08/03 03:58:10;;;;;;;;;;;18.30;99.90;;;;;;5039179;28;19925;-70
2022/08/03 04:00:37;;;;;;;;;;;18.30;99.90;;;;;;5038900;28;19925;-70
2022/08/03 04:03:04;;;;;;;;;;;18.30;99.90;;;;;;5039935;28;19975;-71
2022/08/03 04:11:07;;;;;;;;;;;18.30;99.90;;;;;;5023228;28;19928;-70
2022/08/03 04:13:35;;;;;;;;;;;18.30;99.90;;;;;;5039085;28;19933;-70
2022/08/03 04:16:03;;;;;;;;;;;18.30;99.90;;;;;;5036179;28;19928;-70
2022/08/03 04:18:30;;;;;;;;;;;18.30;99.90;;;;;;5035449;28;20376;-70
2022/08/03 04:21:02;;;;;;;;;;;18.30;99.90;;;;;;5046037;28;19929;-70
2022/08/03 04:23:30;;;;;;;;;;;18.30;99.90;;;;;;5038077;28;20400;-69
2022/08/03 04:25:59;;;;;;;;;;;18.30;99.90;;;;;;5041828;28;19924;-69
2022/08/03 04:28:27;;;;;;;;;;;18.20;99.90;;;;;;5039123;28;19925;-69
2022/08/03 04:30:55;;;;;;;;;;;18.20;99.90;;;;;;5031486;28;19925;-69
2022/08/03 04:33:23;;;;;;;;;;;18.20;99.90;;;;;;5037546;28;19932;-69
2022/08/03 04:35:52;;;;;;;;;;;18.20;99.90;;;;;;5037636;28;19946;-69
2022/08/03 04:38:21;;;;;;;;;;;18.30;99.90;;;;;;5040314;28;19935;-69
2022/08/03 04:40:47;;;;;;;;;;;18.30;99.90;;;;;;5033496;28;19925;-69
2022/08/03 04:43:16;;;;;;;;;;;18.30;99.90;;;;;;5033035;28;19925;-70
2022/08/03 04:45:43;;;;;;;;;;;18.30;99.90;;;;;;5032797;28;20458;-70
2022/08/03 04:48:10;;;;;;;;;;;18.30;99.90;;;;;;5027219;28;20343;-70
2022/08/03 04:50:37;;;;;;;;;;;18.30;99.90;;;;;;5032360;28;19931;-70
2022/08/03 04:53:05;;;;;;;;;;;18.30;99.90;;;;;;5047966;28;19932;-70
2022/08/03 04:55:34;;;;;;;;;;;18.30;99.90;;;;;;5035893;28;19928;-69
2022/08/03 04:58:02;;;;;;;;;;;18.30;99.90;;;;;;5050613;28;19928;-70
2022/08/03 05:00:29;;;;;;;;;;;18.30;99.90;;;;;;5046711;28;19929;-70
2022/08/03 05:02:56;;;;;;;;;;;18.40;99.90;;;;;;5034896;28;20296;-70
2022/08/03 05:05:23;;;;;;;;;;;18.40;99.90;;;;;;5038957;28;19986;-71
2022/08/03 05:07:49;;;;;;;;;;;18.50;99.90;;;;;;5035926;28;19936;-71
2022/08/03 05:10:16;;;;;;;;;;;18.50;99.90;;;;;;5042321;28;19968;-71
2022/08/03 05:12:46;;;;;;;;;;;18.60;99.90;;;;;;5034957;28;19983;-71
2022/08/03 05:15:13;;;;;;;;;;;18.70;99.90;;;;;;5038823;28;19943;-71
2022/08/03 05:17:39;;;;;;;;;;;18.80;99.90;;;;;;5036198;28;20583;-71
2022/08/03 05:20:07;;;;;;;;;;;18.90;99.90;;;;;;5037887;28;19925;-71
2022/08/03 05:22:35;;;;;;;;;;;19.00;99.90;;;;;;5037587;28;20085;-71
2022/08/03 05:25:02;;;;;;;;;;;19.00;99.90;;;;;;5043350;28;19925;-71
2022/08/03 05:27:29;;;;;;;;;;;19.10;99.90;;;;;;5035894;28;19956;-72
2022/08/03 05:29:57;;;;;;;;;;;19.20;99.90;;;;;;5034980;28;19924;-70
2022/08/03 05:32:24;;;;;;;;;;;19.30;99.90;;;;;;5039457;28;19931;-71
2022/08/03 05:34:51;;;;;;;;;;;19.40;99.90;;;;;;5051116;28;19929;-71
2022/08/03 05:37:18;;;;;;;;;;;19.50;99.90;;;;;;5038380;28;19944;-69
2022/08/03 05:39:44;;;;;;;;;;;19.60;99.90;;;;;;5032850;28;19929;-76
2022/08/03 05:42:11;;;;;;;;;;;19.70;99.90;;;;;;5035286;28;19924;-70
2022/08/03 05:44:38;;;;;;;;;;;19.80;99.90;;;;;;5037527;28;19928;-70
2022/08/03 05:47:06;;;;;;;;;;;19.90;99.90;;;;;;5035391;28;20368;-70
2022/08/03 05:49:33;;;;;;;;;;;20.10;99.90;;;;;;5029155;28;19924;-70
2022/08/03 05:52:00;;;;;;;;;;;20.10;99.90;;;;;;5046267;28;19998;-68
2022/08/03 05:54:27;;;;;;;;;;;20.30;99.90;;;;;;5033653;28;19940;-69
2022/08/03 05:56:53;;;;;;;;;;;20.40;99.90;;;;;;5024483;28;19965;-68
2022/08/03 05:59:20;;;;;;;;;;;20.50;99.90;;;;;;5034481;28;19929;-69
2022/08/03 06:01:47;;;;;;;;;;;20.60;99.90;;;;;;5035850;28;20027;-69
2022/08/03 06:06:49;;;;;;;;;;;20.70;99.90;;;;;;5009023;28;19925;-66
2022/08/03 06:09:16;;;;;;;;;;;20.80;99.90;;;;;;5014979;28;19937;-67
2022/08/03 06:11:42;;;;;;;;;;;20.90;99.90;;;;;;4996120;28;20020;-68
2022/08/03 06:14:09;;;;;;;;;;;21.00;99.90;;;;;;5014778;28;20451;-68
2022/08/03 06:16:36;;;;;;;;;;;21.10;99.90;;;;;;5018539;28;19975;-67
2022/08/03 06:19:02;;;;;;;;;;;21.20;99.90;;;;;;5012309;28;20388;-67
2022/08/03 06:21:29;;;;;;;;;;;21.40;99.90;;;;;;5005604;28;20355;-67
2022/08/03 06:23:57;;;;;;;;;;;21.50;99.90;;;;;;4995174;28;19926;-67
2022/08/03 06:26:24;;;;;;;;;;;21.60;99.90;;;;;;4993459;28;19929;-67
2022/08/03 06:28:51;;;;;;;;;;;21.70;99.90;;;;;;4990474;28;19937;-68
2022/08/03 06:31:18;;;;;;;;;;;21.80;99.90;;;;;;4999048;28;20397;-67
2022/08/03 06:33:45;;;;;;;;;;;22.00;99.90;;;;;;4996735;28;19930;-72
2022/08/03 06:36:11;;;;;;;;;;;22.10;99.90;;;;;;4995211;28;19930;-67
2022/08/03 06:38:38;;;;;;;;;;;22.20;99.90;;;;;;4997398;28;19929;-68
2022/08/03 06:41:06;;;;;;;;;;;22.30;99.90;;;;;;4994703;28;19929;-69
2022/08/03 06:43:36;;;;;;;;;;;22.50;99.90;;;;;;4998393;28;19957;-68
2022/08/03 06:46:03;;;;;;;;;;;22.60;99.90;;;;;;4999228;28;19926;-68
2022/08/03 06:48:29;;;;;;;;;;;22.80;99.90;;;;;;4990380;28;19926;-68
2022/08/03 06:50:56;;;;;;;;;;;22.80;99.90;;;;;;5020062;28;19925;-67
2022/08/03 06:53:23;;;;;;;;;;;22.90;99.90;;;;;;5010589;28;19925;-67
2022/08/03 06:55:50;;;;;;;;;;;23.00;99.90;;;;;;5001516;28;19968;-69
2022/08/03 06:58:18;;;;;;;;;;;23.20;99.90;;;;;;4995479;28;20474;-68
2022/08/03 07:00:45;;;;;;;;;;;23.30;99.90;;;;;;4996455;28;19980;-68
2022/08/03 07:03:12;;;;;;;;;;;23.40;99.90;;;;;;5015977;28;20376;-68
2022/08/03 07:05:38;;;;;;;;;;;23.60;99.90;;;;;;4998084;28;19926;-68
2022/08/03 07:08:06;;;;;;;;;;;23.70;99.90;;;;;;4996388;28;20352;-68
2022/08/03 07:10:33;;;;;;;;;;;23.80;99.90;;;;;;5001320;28;20413;-68
2022/08/03 07:13:00;;;;;;;;;;;23.90;99.90;;;;;;5002660;28;19925;-69
2022/08/03 07:15:28;;;;;;;;;;;24.00;99.90;;;;;;4998926;28;19932;-69
2022/08/03 07:17:55;;;;;;;;;;;24.10;99.90;;;;;;4986106;28;19930;-69
2022/08/03 07:20:22;;;;;;;;;;;24.20;99.90;;;;;;5002334;28;19968;-67
2022/08/03 07:22:48;;;;;;;;;;;24.20;99.90;;;;;;4996337;28;19934;-68
2022/08/03 07:25:15;;;;;;;;;;;24.30;99.90;;;;;;4996377;28;19926;-69
2022/08/03 07:27:43;;;;;;;;;;;24.30;99.90;;;;;;4996217;28;19933;-68
2022/08/03 07:30:10;;;;;;;;;;;24.30;99.90;;;;;;5003747;28;20408;-68
2022/08/03 07:32:38;;;;;;;;;;;24.40;99.90;;;;;;4994030;28;19980;-67
2022/08/03 07:35:05;;;;;;;;;;;24.50;99.90;;;;;;4999544;28;19926;-67
2022/08/03 07:37:32;;;;;;;;;;;24.60;99.90;;;;;;4995523;28;19936;-67
2022/08/03 07:39:59;;;;;;;;;;;24.60;99.90;;;;;;4999854;28;19933;-68
2022/08/03 07:42:26;;;;;;;;;;;24.70;99.90;;;;;;4998219;28;20305;-68
2022/08/03 07:44:53;;;;;;;;;;;24.80;99.90;;;;;;5000882;28;20645;-68
2022/08/03 07:47:20;;;;;;;;;;;24.80;99.90;;;;;;4991014;28;19937;-67
2022/08/03 07:49:48;;;;;;;;;;;24.80;99.90;;;;;;5001491;28;19925;-68
2022/08/03 07:54:59;;;;;;;;;;;25.00;99.90;;;;;;4997997;28;19965;-67
2022/08/03 07:57:26;;;;;;;;;;;25.10;99.90;;;;;;5026416;28;19945;-68
2022/08/03 07:59:53;;;;;;;;;;;25.20;99.90;;;;;;5017383;28;19979;-68
2022/08/03 08:02:19;;;;;;;;;;;25.20;99.90;;;;;;4991924;28;19925;-67
2022/08/03 08:04:48;;;;;;;;;;;25.30;99.90;;;;;;5006722;28;19933;-67
2022/08/03 08:07:14;;;;;;;;;;;25.40;99.90;;;;;;4996563;28;19933;-67
2022/08/03 08:09:41;;;;;;;;;;;25.60;99.90;;;;;;5018819;28;19944;-68
2022/08/03 08:12:09;;;;;;;;;;;25.70;99.90;;;;;;4993978;28;20357;-67
2022/08/03 08:14:36;;;;;;;;;;;25.80;99.90;;;;;;4992027;28;19951;-68
2022/08/03 08:17:02;;;;;;;;;;;25.90;99.90;;;;;;5003869;28;20294;-68
2022/08/03 08:19:29;;;;;;;;;;;26.10;99.90;;;;;;4986981;28;20332;-67
2022/08/03 08:21:57;;;;;;;;;;;26.10;99.90;;;;;;4997956;28;19929;-66
2022/08/03 08:24:24;;;;;;;;;;;26.20;99.90;;;;;;4997343;28;20348;-67
2022/08/03 08:26:51;;;;;;;;;;;26.30;99.90;;;;;;4998086;28;19926;-67
2022/08/03 08:29:21;;;;;;;;;;;26.30;99.90;;;;;;4996910;28;19925;-67
2022/08/03 08:31:48;;;;;;;;;;;26.40;99.90;;;;;;5001342;28;19995;-67
2022/08/03 08:34:15;;;;;;;;;;;26.50;99.90;;;;;;5020032;28;19933;-68
2022/08/03 08:36:41;;;;;;;;;;;26.60;99.90;;;;;;5010068;28;20028;-67
2022/08/03 08:39:11;;;;;;;;;;;26.70;99.90;;;;;;5002949;28;19925;-67
2022/08/03 08:41:37;;;;;;;;;;;26.90;99.90;;;;;;5020434;28;20080;-67
2022/08/03 08:44:06;;;;;;;;;;;27.00;99.90;;;;;;5006508;28;19987;-67
2022/08/03 08:46:33;;;;;;;;;;;27.10;99.90;;;;;;4981257;28;19929;-66
2022/08/03 08:49:00;;;;;;;;;;;27.20;99.90;;;;;;4997284;28;19926;-66
2022/08/03 08:51:28;;;;;;;;;;;27.40;99.90;;;;;;4986426;28;19925;-64
2022/08/03 08:53:55;;;;;;;;;;;27.50;99.90;;;;;;4994448;28;19941;-67
2022/08/03 08:56:25;;;;;;;;;;;27.60;99.90;;;;;;4998529;28;20433;-67
2022/08/03 08:58:54;;;;;;;;;;;27.80;99.90;;;;;;5001849;28;20376;-67
2022/08/03 09:01:21;;;;;;;;;;;27.80;99.90;;;;;;4998258;28;19925;-67
2022/08/03 09:03:48;;;;;;;;;;;27.80;99.90;;;;;;5020741;28;20019;-66
2022/08/03 09:06:14;;;;;;;;;;;27.80;99.90;;;;;;5005486;28;20416;-67
2022/08/03 09:08:41;;;;;;;;;;;27.90;99.90;;;;;;5020371;28;20028;-67
2022/08/03 09:11:08;;;;;;;;;;;28.00;99.90;;;;;;5006204;28;19980;-66
2022/08/03 09:13:36;;;;;;;;;;;28.00;99.90;;;;;;5004274;28;20367;-67
2022/08/03 09:16:09;;;;;;;;;;;28.10;99.90;;;;;;5003591;28;19929;-67
2022/08/03 09:18:35;;;;;;;;;;;28.20;99.90;;;;;;5017028;28;19932;-67
2022/08/03 09:21:12;;;;;;;;;;;28.30;99.90;;;;;;5006182;28;19944;-67
2022/08/03 09:23:44;;;;;;;;;;;28.20;99.90;;;;;;4996890;28;19929;-67
2022/08/03 09:26:10;;;;;;;;;;;28.30;99.90;;;;;;5002928;28;19926;-67
2022/08/03 09:28:39;;;;;;;;;;;28.30;99.90;;;;;;4998431;28;19941;-67
2022/08/03 09:31:07;;;;;;;;;;;28.40;99.90;;;;;;5002891;28;19932;-67
2022/08/03 09:33:46;;;;;;;;;;;28.40;99.90;;;;;;5010440;28;19984;-67
2022/08/03 09:36:33;;;;;;;;;;;28.40;99.90;;;;;;5004471;28;19925;-67
2022/08/03 09:39:05;;;;;;;;;;;28.50;99.90;;;;;;5015786;28;19987;-67
2022/08/03 09:41:32;;;;;;;;;;;28.60;99.90;;;;;;5000499;28;19979;-67
2022/08/03 09:44:00;;;;;;;;;;;28.60;99.90;;;;;;5019298;28;19926;-67
2022/08/03 09:46:30;;;;;;;;;;;28.70;99.90;;;;;;4998192;28;19926;-67
2022/08/03 09:49:11;;;;;;;;;;;28.80;99.90;;;;;;5013043;28;19965;-67
2022/08/03 09:51:38;;;;;;;;;;;28.80;99.90;;;;;;5002667;28;19932;-66
2022/08/03 09:54:05;;;;;;;;;;;28.80;99.90;;;;;;4995114;28;19929;-67
2022/08/03 09:56:42;;;;;;;;;;;28.70;99.90;;;;;;5005199;28;19929;-68
2022/08/03 09:59:11;;;;;;;;;;;28.80;99.90;;;;;;5002283;28;19925;-67
2022/08/03 10:01:40;;;;;;;;;;;29.00;99.90;;;;;;5001537;28;20306;-66
2022/08/03 10:04:11;;;;;;;;;;;29.10;99.90;;;;;;5004697;28;19925;-66
2022/08/03 10:06:38;;;;;;;;;;;29.10;99.90;;;;;;5003645;28;19929;-67
2022/08/03 10:09:07;;;;;;;;;;;29.10;99.90;;;;;;5001754;28;19929;-67
2022/08/03 10:11:34;;;;;;;;;;;29.20;99.90;;;;;;5021998;28;19925;-68
2022/08/03 10:14:02;;;;;;;;;;;29.40;99.90;;;;;;4997857;28;19926;-67
2022/08/03 10:16:33;;;;;;;;;;;29.40;99.90;;;;;;5002657;28;19925;-67
2022/08/03 10:18:59;;;;;;;;;;;29.60;99.90;;;;;;4995702;28;19925;-67
2022/08/03 10:21:29;;;;;;;;;;;29.60;99.90;;;;;;5003337;28;19929;-67
2022/08/03 10:23:56;;;;;;;;;;;29.60;99.90;;;;;;5003034;28;19929;-68
2022/08/03 10:26:25;;;;;;;;;;;29.60;99.90;;;;;;4997959;28;19992;-67
2022/08/03 10:28:53;;;;;;;;;;;29.60;99.90;;;;;;4998250;28;19926;-67
2022/08/03 10:31:22;;;;;;;;;;;29.60;99.90;;;;;;5002938;28;19925;-67
2022/08/03 10:33:51;;;;;;;;;;;29.70;99.90;;;;;;5016976;28;20360;-67
2022/08/03 10:36:18;;;;;;;;;;;29.80;99.90;;;;;;5012456;28;20274;-68
2022/08/03 10:38:51;;;;;;;;;;;29.80;99.90;;;;;;4996597;28;19929;-67
2022/08/03 10:41:19;;;;;;;;;;;29.80;99.90;;;;;;5001494;28;20282;-67
2022/08/03 10:43:48;;;;;;;;;;;29.80;99.90;;;;;;4993987;28;19926;-67
2022/08/03 10:46:17;;;;;;;;;;;29.70;99.90;;;;;;4996522;28;19925;-68
2022/08/03 10:48:43;;;;;;;;;;;29.90;99.90;;;;;;4989651;28;20465;-68
2022/08/03 10:51:12;;;;;;;;;;;30.00;99.90;;;;;;4998155;28;20380;-68
2022/08/03 10:53:41;;;;;;;;;;;30.20;99.90;;;;;;4996740;28;19925;-69
2022/08/03 10:59:15;;;;;;;;;;;30.30;99.90;;;;;;5016055;28;20467;-68
2022/08/03 11:01:51;;;;;;;;;;;30.50;99.90;;;;;;4993165;28;19975;-68
2022/08/03 11:04:18;;;;;;;;;;;30.60;99.90;;;;;;4998495;28;20282;-68
2022/08/03 11:06:48;;;;;;;;;;;30.70;99.90;;;;;;5001362;28;20657;-68
2022/08/03 11:09:16;;;;;;;;;;;30.70;99.90;;;;;;5004151;28;19933;-68
2022/08/03 11:11:43;;;;;;;;;;;30.70;99.90;;;;;;4998685;28;19961;-68
2022/08/03 11:14:11;;;;;;;;;;;30.80;99.90;;;;;;5008403;28;19930;-67
2022/08/03 11:16:39;;;;;;;;;;;30.90;99.90;;;;;;5001745;28;19955;-69
2022/08/03 11:19:07;;;;;;;;;;;31.10;99.90;;;;;;5021588;28;20294;-68
2022/08/03 11:21:54;;;;;;;;;;;31.20;99.90;;;;;;5015689;28;19932;-68
2022/08/03 11:24:40;;;;;;;;;;;31.20;99.90;;;;;;5003337;28;19933;-66
2022/08/03 11:27:17;;;;;;;;;;;31.20;99.90;;;;;;4995961;28;19984;-66
2022/08/03 11:29:54;;;;;;;;;;;31.50;99.90;;;;;;5016247;28;19932;-66
2022/08/03 11:32:35;;;;;;;;;;;31.30;99.90;;;;;;5008570;28;19930;-65
2022/08/03 11:35:07;;;;;;;;;;;31.30;99.90;;;;;;4994882;28;20020;-65
2022/08/03 11:37:35;;;;;;;;;;;31.50;99.90;;;;;;5006713;28;20007;-66
2022/08/03 11:40:02;;;;;;;;;;;31.70;99.90;;;;;;5024021;28;20022;-65
2022/08/03 11:42:39;;;;;;;;;;;32.40;99.90;;;;;;5001781;28;19925;-65
2022/08/03 11:45:07;;;;;;;;;;;34.00;99.90;;;;;;5020473;28;19973;-66
2022/08/03 11:47:36;;;;;;;;;;;35.30;99.90;;;;;;4999371;28;20397;-66
2022/08/03 11:50:03;;;;;;;;;;;35.40;99.90;;;;;;4998449;28;19925;-66
2022/08/03 11:52:36;;;;;;;;;;;36.50;99.90;;;;;;4997732;28;19925;-65
2022/08/03 11:55:02;;;;;;;;;;;37.00;99.90;;;;;;4999449;28;20420;-66
2022/08/03 11:57:30;;;;;;;;;;;37.70;99.90;;;;;;4992275;28;20468;-64
2022/08/03 11:59:56;;;;;;;;;;;37.60;99.90;;;;;;5015165;28;19965;-66
2022/08/03 12:02:23;;;;;;;;;;;38.10;99.90;;;;;;5010719;28;20454;-66
2022/08/03 12:04:50;;;;;;;;;;;38.20;99.90;;;;;;5023777;28;19929;-66
2022/08/03 12:07:17;;;;;;;;;;;38.50;99.90;;;;;;5004603;28;19933;-66
2022/08/03 12:10:01;;;;;;;;;;;38.70;99.90;;;;;;4997517;28;20293;-66
2022/08/03 12:12:28;;;;;;;;;;;39.30;99.90;;;;;;5005023;28;19925;-66
2022/08/03 12:14:55;;;;;;;;;;;39.30;99.90;;;;;;5022703;28;19957;-66
2022/08/03 12:17:22;;;;;;;;;;;39.60;99.90;;;;;;5015646;28;19925;-66
2022/08/03 12:19:48;;;;;;;;;;;39.60;99.60;;;;;;5012477;28;19937;-66
2022/08/03 12:22:15;;;;;;;;;;;39.20;99.00;;;;;;5023754;28;19929;-66
2022/08/03 12:24:42;;;;;;;;;;;38.70;99.30;;;;;;4997358;28;19925;-67
2022/08/03 12:27:11;;;;;;;;;;;39.20;99.90;;;;;;5005633;28;19929;-66
2022/08/03 12:29:37;;;;;;;;;;;39.90;99.40;;;;;;5005289;28;19929;-66
2022/08/03 12:32:04;;;;;;;;;;;39.80;99.50;;;;;;5005157;28;19987;-67
2022/08/03 12:34:58;;;;;;;;;;;40.90;99.30;;;;;;5008875;28;20343;-68
2022/08/03 12:37:25;;;;;;;;;;;40.80;99.40;;;;;;4993886;28;19933;-68
2022/08/03 12:39:52;;;;;;;;;;;40.90;98.10;;;;;;4996505;28;19925;-68
2022/08/03 12:42:20;;;;;;;;;;;40.80;98.10;;;;;;5002677;28;19929;-66
2022/08/03 12:44:49;;;;;;;;;;;40.50;96.70;;;;;;5008422;28;19925;-67
2022/08/03 12:47:16;;;;;;;;;;;41.20;97.10;;;;;;5018062;28;19944;-69
2022/08/03 12:49:46;;;;;;;;;;;41.50;95.80;;;;;;5001247;28;19929;-68
2022/08/03 12:52:13;;;;;;;;;;;41.80;96.50;;;;;;5020108;28;19932;-68
2022/08/03 12:54:40;;;;;;;;;;;41.20;97.20;;;;;;4992338;28;20376;-69
2022/08/03 12:57:08;;;;;;;;;;;41.30;96.80;;;;;;5001187;28;19933;-66
2022/08/03 12:59:41;;;;;;;;;;;40.20;96.80;;;;;;5004322;28;20356;-66
2022/08/03 13:02:14;;;;;;;;;;;39.60;96.80;;;;;;5006859;28;20401;-69
2022/08/03 13:04:41;;;;;;;;;;;40.80;97.00;;;;;;4994722;28;19925;-69
2022/08/03 13:07:10;;;;;;;;;;;41.60;96.80;;;;;;4979390;28;22675;-69
2022/08/03 13:09:44;;;;;;;;;;;42.10;96.30;;;;;;4994918;28;19929;-69
2022/08/03 13:12:12;;;;;;;;;;;41.40;96.10;;;;;;5014821;28;19944;-69
2022/08/03 13:14:41;;;;;;;;;;;41.40;96.10;;;;;;5005484;28;20364;-70
2022/08/03 13:17:08;;;;;;;;;;;41.80;95.90;;;;;;5023316;28;20007;-68
2022/08/03 13:19:36;;;;;;;;;;;42.90;95.70;;;;;;5028033;28;19937;-67
2022/08/03 13:22:10;;;;;;;;;;;42.40;95.60;;;;;;5004536;28;19933;-67
2022/08/03 13:24:37;;;;;;;;;;;41.40;94.90;;;;;;4999262;28;19991;-67
2022/08/03 13:27:06;;;;;;;;;;;41.50;95.40;;;;;;5006046;28;19929;-68
2022/08/03 13:29:33;;;;;;;;;;;41.90;95.50;;;;;;4998689;28;19925;-68
2022/08/03 13:32:02;;;;;;;;;;;42.20;95.30;;;;;;5009426;28;20379;-65
2022/08/03 13:34:28;;;;;;;;;;;42.20;94.50;;;;;;5010641;28;19937;-70
2022/08/03 13:36:55;;;;;;;;;;;41.90;94.60;;;;;;5015331;28;19926;-69
2022/08/03 13:39:22;;;;;;;;;;;42.40;94.80;;;;;;5004457;28;19972;-72
2022/08/03 13:41:49;;;;;;;;;;;41.90;94.30;;;;;;5002792;28;19957;-71
2022/08/03 13:44:16;;;;;;;;;;;41.90;94.70;;;;;;5011006;28;19980;-71
2022/08/03 13:46:42;;;;;;;;;;;41.70;94.60;;;;;;5011973;28;19925;-68
2022/08/03 13:49:10;;;;;;;;;;;41.70;94.40;;;;;;4993729;28;19973;-66
2022/08/03 13:51:37;;;;;;;;;;;41.50;94.50;;;;;;4995354;28;20383;-68
2022/08/03 13:54:04;;;;;;;;;;;41.90;94.20;;;;;;4997044;28;19926;-68
2022/08/03 13:56:31;;;;;;;;;;;42.30;94.30;;;;;;4997630;28;19988;-67
2022/08/03 13:58:58;;;;;;;;;;;42.00;94.00;;;;;;4998692;28;19933;-68
2022/08/03 14:01:25;;;;;;;;;;;42.50;94.10;;;;;;5002013;28;19957;-66
2022/08/03 14:03:53;;;;;;;;;;;42.90;93.70;;;;;;4994551;28;20340;-67
2022/08/03 14:06:21;;;;;;;;;;;43.10;93.50;;;;;;4998686;28;19926;-67
2022/08/03 14:08:48;;;;;;;;;;;43.70;93.40;;;;;;5014330;28;20421;-66
2022/08/03 14:11:16;;;;;;;;;;;43.60;92.90;;;;;;4999739;28;19933;-67
2022/08/03 14:13:42;;;;;;;;;;;43.70;93.30;;;;;;5016587;28;19975;-67
2022/08/03 14:16:09;;;;;;;;;;;43.50;92.80;;;;;;5003883;28;20431;-68
2022/08/03 14:18:36;;;;;;;;;;;43.10;92.90;;;;;;5004090;28;19926;-67
2022/08/03 14:21:04;;;;;;;;;;;42.60;92.90;;;;;;5000610;28;19937;-67
2022/08/03 14:23:33;;;;;;;;;;;42.00;92.70;;;;;;5009088;28;19925;-67
2022/08/03 14:25:59;;;;;;;;;;;42.10;92.80;;;;;;4990353;28;19929;-67
2022/08/03 14:28:27;;;;;;;;;;;41.50;92.80;;;;;;4996498;28;19925;-67
2022/08/03 14:30:54;;;;;;;;;;;41.60;92.60;;;;;;5020476;28;19925;-67
2022/08/03 14:33:22;;;;;;;;;;;41.80;92.60;;;;;;4995871;28;19926;-67
2022/08/03 14:35:48;;;;;;;;;;;40.80;92.80;;;;;;4996550;28;19937;-67